createdAt,value
2023-02-22T00:02:14.036Z,3.51
2023-02-22T00:04:41.750Z,3.62
2023-02-22T00:07:09.073Z,3.53
2023-02-22T00:09:36.620Z,3.10
2023-02-22T00:12:03.983Z,3.52
2023-02-22T00:14:31.559Z,3.73
2023-02-22T00:16:59.907Z,3.56
2023-02-22T00:19:31.056Z,3.46
2023-02-22T00:21:58.491Z,3.38
2023-02-22T00:24:26.405Z,3.41
2023-02-22T00:26:55.748Z,3.38
2023-02-22T00:29:25.016Z,3.66
2023-02-22T00:31:52.590Z,3.61
2023-02-22T00:34:20.299Z,3.55
2023-02-22T00:36:49.180Z,3.46
2023-02-22T00:39:16.994Z,3.75
2023-02-22T00:41:44.509Z,3.75
2023-02-22T00:44:12.328Z,3.66
2023-02-22T00:46:40.168Z,3.68
2023-02-22T00:49:08.012Z,3.69
2023-02-22T00:51:35.340Z,3.62
2023-02-22T00:54:03.418Z,3.23
2023-02-22T00:56:32.598Z,3.36
2023-02-22T00:59:03.647Z,3.31
2023-02-22T01:01:31.560Z,3.34
2023-02-22T01:03:59.266Z,3.32
2023-02-22T01:06:26.721Z,3.31
2023-02-22T01:08:54.215Z,3.36
2023-02-22T01:11:22.462Z,3.22
2023-02-22T01:13:50.017Z,3.40
2023-02-22T01:16:17.332Z,3.56
2023-02-22T01:18:44.951Z,3.52
2023-02-22T01:21:12.443Z,3.58
2023-02-22T01:23:45.397Z,3.61
2023-02-22T01:26:13.046Z,3.72
2023-02-22T01:28:40.547Z,3.72
2023-02-22T01:31:07.794Z,3.80
2023-02-22T01:33:35.388Z,3.82
2023-02-22T01:36:03.780Z,3.80
2023-02-22T01:38:31.300Z,3.84
2023-02-22T01:40:58.631Z,3.77
2023-02-22T01:43:32.664Z,3.83
2023-02-22T01:46:21.033Z,3.85
2023-02-22T01:48:56.386Z,3.80
2023-02-22T01:51:37.570Z,3.72
2023-02-22T01:54:25.488Z,3.71
2023-02-22T01:57:19.629Z,3.74
2023-02-22T01:59:50.820Z,3.72
2023-02-22T02:02:21.732Z,3.72
2023-02-22T02:04:49.613Z,3.68
2023-02-22T02:07:21.217Z,3.59
2023-02-22T02:09:59.101Z,3.70
2023-02-22T02:12:29.757Z,3.69
2023-02-22T02:15:17.999Z,3.66
2023-02-22T02:17:46.503Z,3.61
2023-02-22T02:20:21.295Z,3.75
2023-02-22T02:23:00.992Z,3.80
2023-02-22T02:25:31.386Z,3.86
2023-02-22T02:28:01.476Z,3.67
2023-02-22T02:30:38.375Z,3.57
2023-02-22T02:33:16.842Z,3.43
2023-02-22T02:36:08.217Z,3.61
2023-02-22T02:38:51.202Z,3.62
2023-02-22T02:41:35.516Z,3.43
2023-02-22T02:44:05.398Z,3.67
2023-02-22T02:46:39.923Z,3.78
2023-02-22T02:49:13.911Z,3.83
2023-02-22T02:51:47.376Z,3.80
2023-02-22T02:54:16.029Z,3.84
2023-02-22T02:56:43.722Z,3.84
2023-02-22T02:59:43.823Z,3.86
2023-02-22T03:02:47.496Z,3.93
2023-02-22T03:05:39.586Z,3.98
2023-02-22T03:08:18.188Z,3.83
2023-02-22T03:11:15.126Z,3.87
2023-02-22T03:14:01.365Z,3.86
2023-02-22T03:17:00.647Z,3.86
2023-02-22T03:19:37.321Z,3.80
2023-02-22T03:22:16.539Z,3.81
2023-02-22T03:25:17.263Z,3.72
2023-02-22T03:27:49.677Z,3.66
2023-02-22T03:30:27.581Z,3.68
2023-02-22T03:33:09.891Z,3.63
2023-02-22T03:35:45.334Z,3.58
2023-02-22T03:38:17.003Z,3.65
2023-02-22T03:40:49.631Z,3.63
2023-02-22T03:43:25.025Z,3.57
2023-02-22T03:45:58.172Z,3.53
2023-02-22T03:48:33.860Z,3.51
2023-02-22T03:51:04.703Z,3.57
2023-02-22T03:53:37.219Z,3.55
2023-02-22T03:56:10.506Z,3.57
2023-02-22T03:58:44.329Z,3.60
2023-02-22T04:01:13.318Z,3.54
2023-02-22T04:03:42.253Z,3.63
2023-02-22T04:06:10.281Z,3.62
2023-02-22T04:08:38.089Z,3.59
2023-02-22T04:11:06.018Z,3.55
2023-02-22T04:13:33.814Z,3.46
2023-02-22T04:16:01.647Z,3.55
2023-02-22T04:18:29.432Z,3.46
2023-02-22T04:20:56.976Z,3.48
2023-02-22T04:23:44.591Z,3.44
2023-02-22T04:26:12.872Z,3.42
2023-02-22T04:28:40.360Z,3.48
2023-02-22T04:31:11.585Z,3.50
2023-02-22T04:33:39.325Z,3.57
2023-02-22T04:36:07.727Z,3.55
2023-02-22T04:38:35.809Z,3.65
2023-02-22T04:41:03.392Z,3.63
2023-02-22T04:43:31.468Z,3.55
2023-02-22T04:46:21.355Z,3.60
2023-02-22T04:48:48.896Z,3.60
2023-02-22T04:51:18.059Z,3.55
2023-02-22T04:53:59.415Z,3.53
2023-02-22T04:56:27.064Z,3.53
2023-02-22T04:58:54.319Z,3.44
2023-02-22T05:01:21.980Z,3.42
2023-02-22T05:03:49.315Z,3.14
2023-02-22T05:06:17.940Z,3.21
2023-02-22T05:08:45.167Z,3.40
2023-02-22T05:11:12.705Z,3.40
2023-02-22T05:13:39.918Z,3.42
2023-02-22T05:16:07.462Z,3.46
2023-02-22T05:18:34.676Z,3.51
2023-02-22T05:21:02.260Z,3.59
2023-02-22T05:23:29.568Z,3.63
2023-02-22T05:25:57.120Z,3.59
2023-02-22T05:28:24.570Z,3.51
2023-02-22T05:30:52.226Z,3.55
2023-02-22T05:33:19.464Z,3.65
2023-02-22T05:35:47.032Z,3.58
2023-02-22T05:38:15.380Z,3.52
2023-02-22T05:40:43.494Z,3.58
2023-02-22T05:43:10.910Z,3.60
2023-02-22T05:45:38.518Z,3.65
2023-02-22T05:48:05.973Z,3.74
2023-02-22T05:50:34.418Z,3.87
2023-02-22T05:53:01.988Z,3.88
2023-02-22T05:55:29.524Z,3.98
2023-02-22T05:57:56.817Z,3.86
2023-02-22T06:00:27.931Z,3.84
2023-02-22T06:02:57.146Z,3.69
2023-02-22T06:05:25.530Z,3.73
2023-02-22T06:07:53.932Z,3.79
2023-02-22T06:10:21.465Z,3.84
2023-02-22T06:12:49.920Z,3.91
2023-02-22T06:15:19.487Z,3.97
2023-02-22T06:17:47.561Z,3.95
2023-02-22T06:20:18.200Z,3.94
2023-02-22T06:22:48.107Z,3.97
2023-02-22T06:25:19.653Z,3.99
2023-02-22T06:27:46.962Z,3.85
2023-02-22T06:30:17.110Z,3.91
2023-02-22T06:32:44.350Z,3.94
2023-02-22T06:35:11.866Z,4.04
2023-02-22T06:37:40.352Z,4.04
2023-02-22T06:40:08.536Z,4.02
2023-02-22T06:42:35.780Z,4.10
2023-02-22T06:45:03.929Z,4.23
2023-02-22T06:47:31.206Z,4.18
2023-02-22T06:50:01.060Z,4.25
2023-02-22T06:52:28.347Z,4.27
2023-02-22T06:54:55.933Z,4.35
2023-02-22T06:57:23.121Z,4.39
2023-02-22T06:59:50.632Z,4.38
2023-02-22T07:02:17.878Z,4.34
2023-02-22T07:04:45.669Z,3.97
2023-02-22T07:07:12.923Z,4.30
2023-02-22T07:09:40.436Z,3.99
2023-02-22T07:12:07.993Z,4.16
2023-02-22T07:14:35.574Z,3.92
2023-02-22T07:17:03.401Z,3.95
2023-02-22T07:19:30.929Z,4.07
2023-02-22T07:21:59.465Z,3.71
2023-02-22T07:24:30.904Z,3.38
2023-02-22T07:26:58.152Z,3.70
2023-02-22T07:29:25.664Z,3.59
2023-02-22T07:31:52.962Z,3.84
2023-02-22T07:34:20.692Z,4.12
2023-02-22T07:36:47.979Z,3.91
2023-02-22T07:39:15.646Z,3.68
2023-02-22T07:41:42.946Z,4.15
2023-02-22T07:44:22.852Z,4.32
2023-02-22T07:46:50.539Z,4.53
2023-02-22T07:49:18.543Z,4.67
2023-02-22T07:51:45.862Z,4.78
2023-02-22T07:54:13.417Z,4.87
2023-02-22T07:56:48.023Z,5.01
2023-02-22T07:59:16.542Z,4.75
2023-02-22T08:01:43.806Z,4.87
2023-02-22T08:04:11.325Z,4.80
2023-02-22T08:06:38.887Z,4.71
2023-02-22T08:09:06.478Z,4.99
2023-02-22T08:11:33.848Z,4.54
2023-02-22T08:14:01.396Z,4.48
2023-02-22T08:16:28.622Z,4.59
2023-02-22T08:18:56.244Z,5.01
2023-02-22T08:21:23.452Z,5.04
2023-02-22T08:23:54.390Z,5.21
2023-02-22T08:26:21.861Z,5.32
2023-02-22T08:28:49.707Z,5.50
2023-02-22T08:31:17.400Z,5.60
2023-02-22T08:33:48.160Z,5.74
2023-02-22T08:36:16.199Z,3.43
2023-02-22T08:38:43.828Z,4.52
2023-02-22T08:41:11.047Z,4.53
2023-02-22T08:43:38.665Z,4.15
2023-02-22T08:46:06.008Z,4.09
2023-02-22T08:48:33.620Z,3.29
2023-02-22T08:51:00.961Z,4.32
2023-02-22T08:53:28.530Z,4.05
2023-02-22T08:55:55.782Z,4.08
2023-02-22T08:58:23.360Z,3.95
2023-02-22T09:00:50.724Z,4.46
2023-02-22T09:03:18.449Z,3.97
2023-02-22T09:05:45.796Z,3.57
2023-02-22T09:08:13.511Z,3.35
2023-02-22T09:10:40.901Z,3.12
2023-02-22T09:13:08.880Z,3.88
2023-02-22T09:15:36.380Z,4.36
2023-02-22T09:18:05.771Z,4.72
2023-02-22T09:20:33.079Z,4.16
2023-02-22T09:23:02.947Z,4.30
2023-02-22T09:25:30.312Z,5.30
2023-02-22T09:27:57.855Z,5.81
2023-02-22T09:30:33.711Z,5.38
2023-02-22T09:33:10.973Z,4.83
2023-02-22T09:35:46.455Z,4.97
2023-02-22T09:38:17.082Z,4.81
2023-02-22T09:40:50.761Z,4.53
2023-02-22T09:43:41.018Z,4.71
2023-02-22T09:46:13.724Z,4.25
2023-02-22T09:48:51.128Z,4.36
2023-02-22T09:51:20.664Z,3.36
2023-02-22T09:53:52.400Z,4.24
2023-02-22T09:56:20.953Z,4.38
2023-02-22T09:59:01.310Z,4.36
2023-02-22T10:01:29.841Z,4.61
2023-02-22T10:04:08.084Z,4.73
2023-02-22T10:06:37.169Z,4.19
2023-02-22T10:09:08.091Z,4.36
2023-02-22T10:11:44.333Z,4.28
2023-02-22T10:14:58.381Z,4.51
2023-02-22T10:18:03.825Z,4.95
2023-02-22T10:20:49.967Z,3.48
2023-02-22T10:23:41.239Z,4.37
2023-02-22T10:26:12.684Z,4.33
2023-02-22T10:28:48.591Z,4.53
2023-02-22T10:31:38.700Z,4.46
2023-02-22T10:34:15.630Z,4.05
2023-02-22T10:36:47.923Z,3.82
2023-02-22T10:39:27.413Z,3.83
2023-02-22T10:42:06.081Z,4.02
2023-02-22T10:44:34.383Z,4.27
2023-02-22T10:47:05.312Z,4.46
2023-02-22T10:49:39.244Z,4.53
2023-02-22T10:52:15.020Z,4.68
2023-02-22T10:54:46.625Z,4.58
2023-02-22T10:57:14.395Z,4.77
2023-02-22T10:59:42.588Z,4.70
2023-02-22T11:02:16.050Z,4.92
2023-02-22T11:04:56.724Z,4.78
2023-02-22T11:07:31.095Z,4.76
2023-02-22T11:10:01.544Z,4.75
2023-02-22T11:12:33.506Z,5.21
2023-02-22T11:15:28.434Z,5.39
2023-02-22T11:17:57.861Z,5.26
2023-02-22T11:20:28.485Z,5.24
2023-02-22T11:23:00.012Z,5.12
2023-02-22T11:25:31.941Z,5.24
2023-02-22T11:28:16.378Z,5.64
2023-02-22T11:30:49.944Z,5.24
2023-02-22T11:33:17.588Z,5.78
2023-02-22T11:36:06.041Z,6.23
2023-02-22T11:38:40.516Z,6.01
2023-02-22T11:41:22.015Z,5.73
2023-02-22T11:43:51.217Z,6.05
2023-02-22T11:46:26.747Z,6.13
2023-02-22T11:49:02.275Z,6.68
2023-02-22T11:51:38.497Z,6.32
2023-02-22T11:54:40.060Z,6.46
2023-02-22T11:57:10.298Z,5.85
2023-02-22T12:00:16.517Z,5.80
2023-02-22T12:03:11.301Z,6.09
2023-02-22T12:05:59.763Z,6.32
2023-02-22T12:08:38.975Z,6.67
2023-02-22T12:11:28.766Z,6.82
2023-02-22T12:13:58.899Z,6.55
2023-02-22T12:16:49.462Z,6.58
2023-02-22T12:19:27.017Z,6.76
2023-02-22T12:22:03.725Z,6.65
2023-02-22T12:24:44.490Z,6.83
2023-02-22T12:27:18.770Z,6.65
2023-02-22T12:29:57.826Z,6.61
2023-02-22T12:32:41.766Z,6.28
2023-02-22T12:35:21.790Z,6.58
2023-02-22T12:38:18.174Z,6.47
2023-02-22T12:41:08.932Z,6.39
2023-02-22T12:43:45.817Z,6.41
2023-02-22T12:46:29.857Z,6.19
2023-02-22T12:49:20.009Z,6.16
2023-02-22T12:51:47.170Z,5.73
2023-02-22T12:54:25.797Z,6.35
2023-02-22T12:56:52.969Z,6.47
2023-02-22T12:59:34.519Z,6.51
2023-02-22T13:02:15.988Z,5.89
2023-02-22T13:04:43.755Z,5.01
2023-02-22T13:07:10.888Z,5.19
2023-02-22T13:09:38.299Z,5.67
2023-02-22T13:12:14.780Z,4.67
2023-02-22T13:14:48.462Z,5.27
2023-02-22T13:17:21.169Z,5.13
2023-02-22T13:20:06.738Z,5.54
2023-02-22T13:22:47.987Z,5.11
2023-02-22T13:25:17.563Z,4.84
2023-02-22T13:27:47.778Z,4.97
2023-02-22T13:30:33.436Z,4.94
2023-02-22T13:33:32.521Z,4.74
2023-02-22T13:36:24.417Z,4.44
2023-02-22T13:39:54.647Z,4.49
2023-02-22T13:42:44.119Z,4.99
2023-02-22T13:45:27.107Z,4.97
2023-02-22T13:48:22.327Z,4.75
2023-02-22T13:50:58.418Z,4.10
2023-02-22T13:53:33.038Z,4.62
2023-02-22T13:56:01.491Z,4.44
2023-02-22T13:58:29.252Z,4.37
2023-02-22T14:00:59.225Z,4.37
2023-02-22T14:03:36.092Z,4.36
2023-02-22T14:06:08.678Z,3.95
2023-02-22T14:08:36.160Z,4.14
2023-02-22T14:11:18.761Z,4.17
2023-02-22T14:14:01.044Z,3.86
2023-02-22T14:16:32.067Z,3.97
2023-02-22T14:19:14.419Z,4.13
2023-02-22T14:22:02.312Z,4.29
2023-02-22T14:24:43.450Z,4.19
2023-02-22T14:27:11.915Z,4.10
2023-02-22T14:29:53.721Z,4.13
2023-02-22T14:32:30.610Z,4.27
2023-02-22T14:35:05.195Z,3.62
2023-02-22T14:37:38.298Z,3.30
2023-02-22T14:40:29.411Z,3.43
2023-02-22T14:43:22.779Z,3.33
2023-02-22T14:45:55.038Z,3.52
2023-02-22T14:48:29.530Z,3.46
2023-02-22T14:51:03.763Z,3.18
2023-02-22T14:53:49.272Z,3.34
2023-02-22T14:56:24.701Z,3.73
2023-02-22T14:58:58.324Z,3.86
2023-02-22T15:01:47.435Z,3.92
2023-02-22T15:04:27.674Z,3.66
2023-02-22T15:06:57.554Z,3.47
2023-02-22T15:09:30.147Z,3.49
2023-02-22T15:12:05.132Z,3.16
2023-02-22T15:14:39.166Z,3.14
2023-02-22T15:17:19.705Z,2.92
2023-02-22T15:19:50.758Z,2.84
2023-02-22T15:22:26.226Z,3.47
2023-02-22T15:25:06.462Z,3.40
2023-02-22T15:27:37.279Z,3.70
2023-02-22T15:30:29.115Z,3.48
2023-02-22T15:33:04.489Z,2.95
2023-02-22T15:35:33.938Z,3.49
2023-02-22T15:38:03.170Z,3.39
2023-02-22T15:40:33.230Z,3.43
2023-02-22T15:43:03.541Z,3.34
2023-02-22T15:45:32.509Z,3.74
2023-02-22T15:48:00.992Z,2.77
2023-02-22T15:50:34.026Z,2.52
2023-02-22T15:53:07.761Z,2.98
2023-02-22T15:55:41.579Z,3.35
2023-02-22T15:58:14.829Z,3.21
2023-02-22T16:00:45.296Z,2.91
2023-02-22T16:03:16.814Z,2.83
2023-02-22T16:05:47.556Z,2.90
2023-02-22T16:08:21.853Z,2.93
2023-02-22T16:11:13.670Z,2.79
2023-02-22T16:13:42.571Z,2.66
2023-02-22T16:16:25.133Z,3.15
2023-02-22T16:18:52.914Z,2.51
2023-02-22T16:21:23.760Z,2.42
2023-02-22T16:23:55.987Z,2.18
2023-02-22T16:26:31.802Z,2.74
2023-02-22T16:29:00.960Z,3.08
2023-02-22T16:31:39.512Z,2.99
2023-02-22T16:34:08.596Z,2.61
2023-02-22T16:36:46.290Z,2.58
2023-02-22T16:39:22.475Z,2.68
2023-02-22T16:41:51.131Z,2.77
2023-02-22T16:44:18.822Z,2.77
2023-02-22T16:46:46.090Z,2.81
2023-02-22T16:49:14.820Z,2.91
2023-02-22T16:51:49.312Z,2.93
2023-02-22T16:54:24.743Z,2.98
2023-02-22T16:56:52.829Z,2.98
2023-02-22T16:59:20.584Z,3.00
2023-02-22T17:01:47.886Z,3.12
2023-02-22T17:04:24.828Z,3.24
2023-02-22T17:06:53.194Z,2.59
2023-02-22T17:09:20.964Z,2.67
2023-02-22T17:11:51.587Z,2.19
2023-02-22T17:14:23.358Z,2.13
2023-02-22T17:16:51.155Z,2.58
2023-02-22T17:19:24.468Z,2.63
2023-02-22T17:21:51.806Z,2.27
2023-02-22T17:24:24.600Z,2.07
2023-02-22T17:26:53.258Z,1.97
2023-02-22T17:29:20.789Z,2.35
2023-02-22T17:31:49.032Z,2.34
2023-02-22T17:34:17.889Z,2.09
2023-02-22T17:36:45.106Z,2.27
2023-02-22T17:39:13.586Z,1.95
2023-02-22T17:41:41.026Z,1.82
2023-02-22T17:44:08.879Z,2.42
2023-02-22T17:46:37.482Z,2.57
2023-02-22T17:49:05.067Z,2.40
2023-02-22T17:51:32.856Z,2.25
2023-02-22T17:54:00.447Z,2.50
2023-02-22T17:56:27.701Z,2.14
2023-02-22T17:58:55.837Z,2.64
2023-02-22T18:01:28.878Z,2.65
2023-02-22T18:03:59.600Z,2.66
2023-02-22T18:06:30.157Z,1.82
2023-02-22T18:08:59.865Z,1.98
2023-02-22T18:11:32.503Z,2.46
2023-02-22T18:14:00.969Z,1.75
2023-02-22T18:16:28.377Z,1.88
2023-02-22T18:18:56.776Z,2.00
2023-02-22T18:21:26.844Z,1.56
2023-02-22T18:23:55.059Z,2.02
2023-02-22T18:26:24.085Z,1.59
2023-02-22T18:28:53.665Z,1.99
2023-02-22T18:31:22.750Z,1.88
2023-02-22T18:33:52.109Z,1.83
2023-02-22T18:36:22.958Z,1.95
2023-02-22T18:38:55.133Z,1.63
2023-02-22T18:41:27.280Z,1.75
2023-02-22T18:43:57.678Z,1.64
2023-02-22T18:46:25.586Z,1.65
2023-02-22T18:48:55.271Z,2.32
2023-02-22T18:51:23.668Z,2.00
2023-02-22T18:53:56.874Z,1.69
2023-02-22T18:56:29.689Z,2.18
2023-02-22T18:59:00.836Z,2.15
2023-02-22T19:01:29.049Z,2.50
2023-02-22T19:03:56.818Z,2.56
2023-02-22T19:06:24.131Z,2.36
2023-02-22T19:08:52.049Z,1.68
2023-02-22T19:11:22.231Z,1.87
2023-02-22T19:13:56.901Z,1.64
2023-02-22T19:16:27.247Z,1.81
2023-02-22T19:18:59.791Z,2.32
2023-02-22T19:21:29.520Z,2.06
2023-02-22T19:24:02.987Z,2.37
2023-02-22T19:26:30.886Z,1.68
2023-02-22T19:29:02.141Z,2.32
2023-02-22T19:31:33.752Z,2.41
2023-02-22T19:34:08.881Z,2.09
2023-02-22T19:36:40.986Z,2.20
2023-02-22T19:39:09.180Z,1.55
2023-02-22T19:41:36.963Z,1.62
2023-02-22T19:44:05.694Z,1.98
2023-02-22T19:46:34.110Z,1.89
2023-02-22T19:49:02.648Z,1.55
2023-02-22T19:51:31.035Z,2.15
2023-02-22T19:54:07.089Z,1.89
2023-02-22T19:56:35.768Z,1.83
2023-02-22T19:59:12.996Z,2.12
2023-02-22T20:01:44.293Z,2.12
2023-02-22T20:04:18.307Z,1.97
2023-02-22T20:06:47.236Z,2.21
2023-02-22T20:09:18.062Z,2.06
2023-02-22T20:11:46.457Z,1.66
2023-02-22T20:14:18.988Z,1.79
2023-02-22T20:16:46.452Z,1.58
2023-02-22T20:19:14.059Z,2.00
2023-02-22T20:21:41.374Z,1.76
2023-02-22T20:24:18.501Z,2.32
2023-02-22T20:26:46.799Z,2.27
2023-02-22T20:29:15.022Z,1.95
2023-02-22T20:31:43.585Z,1.84
2023-02-22T20:34:11.799Z,1.71
2023-02-22T20:36:41.475Z,1.99
2023-02-22T20:39:13.478Z,2.23
2023-02-22T20:41:42.949Z,2.15
2023-02-22T20:44:13.843Z,1.88
2023-02-22T20:46:41.975Z,2.03
2023-02-22T20:49:13.093Z,1.82
2023-02-22T20:51:41.940Z,1.47
2023-02-22T20:54:12.326Z,2.04
2023-02-22T20:56:42.858Z,1.70
2023-02-22T20:59:13.089Z,2.07
2023-02-22T21:01:42.245Z,1.83
2023-02-22T21:04:11.325Z,2.19
2023-02-22T21:06:39.463Z,2.50
2023-02-22T21:09:11.913Z,1.97
2023-02-22T21:11:40.189Z,1.70
2023-02-22T21:14:08.293Z,2.14
2023-02-22T21:16:37.169Z,2.17
2023-02-22T21:19:07.125Z,2.32
2023-02-22T21:21:35.833Z,2.44
2023-02-22T21:24:03.664Z,2.60
2023-02-22T21:26:33.739Z,2.44
2023-02-22T21:29:04.836Z,2.43
2023-02-22T21:31:34.165Z,2.00
2023-02-22T21:34:02.071Z,1.70
2023-02-22T21:36:30.384Z,1.71
2023-02-22T21:39:00.149Z,1.58
2023-02-22T21:41:31.468Z,1.82
2023-02-22T21:43:59.959Z,1.49
2023-02-22T21:46:31.659Z,1.79
2023-02-22T21:48:59.165Z,2.10
2023-02-22T21:51:31.854Z,1.65
2023-02-22T21:54:02.036Z,1.24
2023-02-22T21:56:32.436Z,1.59
2023-02-22T21:59:18.908Z,1.17
2023-02-22T22:01:51.418Z,1.31
2023-02-22T22:04:22.104Z,1.46
2023-02-22T22:06:52.074Z,1.29
2023-02-22T22:09:23.629Z,1.18
2023-02-22T22:11:58.431Z,0.91
2023-02-22T22:14:26.795Z,1.16
2023-02-22T22:16:59.648Z,1.50
2023-02-22T22:19:29.406Z,1.25
2023-02-22T22:21:58.208Z,1.56
2023-02-22T22:24:29.628Z,1.31
2023-02-22T22:26:56.895Z,1.24
2023-02-22T22:29:28.592Z,1.60
2023-02-22T22:31:56.664Z,1.27
2023-02-22T22:34:24.472Z,1.60
2023-02-22T22:36:51.714Z,0.91
2023-02-22T22:39:21.139Z,1.41
2023-02-22T22:41:48.586Z,0.91
2023-02-22T22:44:22.282Z,1.09
2023-02-22T22:46:53.710Z,1.35
2023-02-22T22:49:23.586Z,1.35
2023-02-22T22:51:51.308Z,0.93
2023-02-22T22:54:18.950Z,1.00
2023-02-22T22:56:46.621Z,1.07
2023-02-22T22:59:15.343Z,0.89
2023-02-22T23:01:44.853Z,0.94
2023-02-22T23:04:18.974Z,0.82
2023-02-22T23:06:52.451Z,1.18
2023-02-22T23:09:29.684Z,0.69
2023-02-22T23:12:09.125Z,1.34
2023-02-22T23:14:40.103Z,0.84
2023-02-22T23:17:14.274Z,1.23
2023-02-22T23:19:47.064Z,1.24
2023-02-22T23:22:14.634Z,1.04
2023-02-22T23:24:44.575Z,1.29
2023-02-22T23:27:12.406Z,1.17
2023-02-22T23:29:41.825Z,0.71
2023-02-22T23:32:09.507Z,0.68
2023-02-22T23:34:41.277Z,0.67
2023-02-22T23:37:10.337Z,0.87
2023-02-22T23:39:38.478Z,1.06
2023-02-22T23:42:08.817Z,1.02
2023-02-22T23:44:36.433Z,0.83
2023-02-22T23:47:04.431Z,0.85
2023-02-22T23:49:38.997Z,0.83
2023-02-22T23:52:08.260Z,0.68
2023-02-22T23:54:40.459Z,0.87
2023-02-22T23:57:08.990Z,1.08
2023-02-22T23:59:40.448Z,0.61
